Time;durP1;ratioP1;P1;durP2;ratioP2;P2;SDS_P1;SDS_P2;PMS_P1;PMS_P2;Temp;Humidity;BMP_temperature;BMP_pressure;BME280_temperature;BME280_humidity;BME280_pressure;Samples;Min_cycle;Max_cycle;Signal;HPM_P1;HPM_P2
2021/09/05 00:00:11;;;;;;;2.05;1.85;;;22.20;52.80;;;26.11;35.59;101962.13;5095233;28;20059;-9
2021/09/05 00:02:37;;;;;;;2.88;2.17;;;22.20;52.80;;;26.09;35.54;101957.84;5095177;28;20405;-9
2021/09/05 00:05:03;;;;;;;2.00;1.80;;;22.20;52.80;;;26.08;35.47;101962.34;5095079;28;20059;-9
2021/09/05 00:07:29;;;;;;;2.10;1.90;;;22.20;52.80;;;26.09;35.49;101961.34;5094876;28;20177;-9
2021/09/05 00:09:55;;;;;;;1.75;1.65;;;22.10;52.80;;;26.06;35.66;101957.09;5094913;28;20486;-9
2021/09/05 00:12:21;;;;;;;2.10;1.90;;;22.10;52.80;;;26.10;35.40;101960.41;5095224;28;20048;-9
2021/09/05 00:14:46;;;;;;;2.20;2.00;;;22.10;52.80;;;26.06;35.62;101951.72;5095347;28;20063;-9
2021/09/05 00:17:13;;;;;;;2.17;1.98;;;22.10;52.80;;;26.09;35.56;101961.34;5077194;28;20083;-9
2021/09/05 00:19:38;;;;;;;1.77;1.63;;;22.10;52.80;;;26.06;35.61;101957.09;5094936;28;20102;-8
2021/09/05 00:22:04;;;;;;;3.50;2.00;;;22.10;52.80;;;26.06;35.54;101956.19;5095089;28;20040;-9
2021/09/05 00:24:30;;;;;;;2.05;1.80;;;22.10;52.80;;;26.08;35.56;101959.66;5095011;28;20101;-9
2021/09/05 00:26:56;;;;;;;1.85;1.65;;;22.10;52.80;;;26.09;35.59;101960.50;5093526;28;20090;-9
2021/09/05 00:29:25;;;;;;;1.60;1.50;;;22.10;52.80;;;26.09;35.49;101961.34;5095289;28;20060;-9
2021/09/05 00:31:52;;;;;;;2.38;2.15;;;22.10;52.80;;;26.05;35.45;101957.19;5094851;28;20048;-9
2021/09/05 00:34:18;;;;;;;2.10;1.90;;;22.10;52.80;;;26.06;35.56;101973.16;5095177;28;20052;-9
2021/09/05 00:36:44;;;;;;;1.83;1.73;;;22.10;52.80;;;26.06;35.63;101959.75;5095152;28;20477;-9
2021/09/05 00:39:11;;;;;;;2.10;1.90;;;22.10;52.90;;;26.04;35.49;101961.69;5076195;28;20051;-9
2021/09/05 00:41:36;;;;;;;2.00;1.67;;;22.10;52.80;;;26.06;35.74;101959.75;5094764;28;20048;-9
2021/09/05 00:44:08;;;;;;;2.47;2.00;;;22.10;52.90;;;26.03;35.62;101956.44;5076774;28;20075;-9
2021/09/05 00:46:37;;;;;;;2.22;1.83;;;22.10;52.80;;;26.05;35.67;101963.38;5094981;28;20047;-9
2021/09/05 00:49:03;;;;;;;2.10;1.90;;;22.10;52.80;;;26.07;35.61;101963.28;5094631;28;20072;-9
2021/09/05 00:51:33;;;;;;;2.33;2.05;;;22.10;52.80;;;26.04;35.56;101972.41;5076471;28;20044;-8
2021/09/05 00:54:05;;;;;;;2.00;1.80;;;22.10;52.90;;;26.02;35.57;101968.94;5093856;28;20486;-9
2021/09/05 00:56:33;;;;;;;2.80;1.90;;;22.10;52.90;;;26.02;35.87;101968.94;5072958;28;20056;-9
2021/09/05 00:59:06;;;;;;;1.92;1.83;;;22.10;52.90;;;26.04;35.66;101976.88;5094820;28;20051;-9
2021/09/05 01:01:36;;;;;;;2.05;1.80;;;22.10;52.90;;;26.04;35.52;101979.56;5077197;28;20043;-9
2021/09/05 01:04:04;;;;;;;;;;;22.10;52.90;;;26.15;35.37;101985.09;5094862;28;20040;-9
2021/09/05 01:06:33;;;;;;;1.85;1.67;;;22.10;52.90;;;26.06;35.33;101975.84;5073940;28;20342;-9
2021/09/05 01:09:01;;;;;;;1.75;1.63;;;22.10;52.80;;;26.04;35.45;101980.44;5094451;28;20036;-8
2021/09/05 01:11:28;;;;;;;1.98;1.73;;;22.10;52.90;;;26.04;35.44;101983.13;5094604;28;20059;-9
2021/09/05 01:13:55;;;;;;;2.28;1.80;;;22.10;52.90;;;26.04;35.63;101984.94;5094606;28;20405;-9
2021/09/05 01:16:32;;;;;;;1.88;1.77;;;22.10;52.90;;;25.99;35.82;101987.91;5059175;28;20041;-9
2021/09/05 01:19:22;;;;;;;2.28;2.05;;;22.10;52.90;;;26.04;35.64;101991.16;5091996;28;20056;-9
2021/09/05 01:22:07;;;;;;;2.00;1.83;;;22.10;52.90;;;26.02;35.47;101990.38;5076048;28;20044;-9
2021/09/05 01:25:06;;;;;;;2.75;2.20;;;22.10;52.90;;;26.02;35.59;101987.72;5094539;28;20131;-9
2021/09/05 01:28:01;;;;;;;3.03;2.00;;;22.10;52.90;;;26.02;35.30;101993.06;5093607;28;20401;-8
2021/09/05 01:30:59;;;;;;;2.28;1.88;;;22.10;52.90;;;26.00;35.60;101991.47;5074775;28;20106;-9
2021/09/05 01:33:44;;;;;;;2.10;1.80;;;22.00;52.90;;;25.98;35.56;101991.56;5094069;28;20533;-9
2021/09/05 01:36:29;;;;;;;2.35;2.10;;;22.10;52.90;;;26.02;35.57;102003.78;5061743;28;20040;-9
2021/09/05 01:39:24;;;;;;;2.20;2.00;;;22.10;52.90;;;25.99;35.61;101992.41;5093493;28;20043;-9
2021/09/05 01:42:10;;;;;;;2.15;1.95;;;22.10;52.90;;;26.00;35.69;101991.47;5094043;28;20055;-9
2021/09/05 01:44:54;;;;;;;2.60;1.88;;;22.10;53.00;;;25.96;35.50;101992.59;5093731;28;20075;-9
2021/09/05 01:47:29;;;;;;;2.13;1.80;;;22.10;53.00;;;25.96;35.63;101992.59;5093829;28;21342;-9
2021/09/05 01:50:14;;;;;;;2.28;2.08;;;22.10;53.00;;;25.97;35.53;101991.66;5093476;28;20409;-9
2021/09/05 01:52:58;;;;;;;2.40;1.85;;;22.10;52.90;;;25.98;35.70;101990.72;5092835;28;20051;-9
2021/09/05 01:55:43;;;;;;;2.17;1.98;;;22.00;52.90;;;25.93;35.82;101996.34;5093644;28;20093;-9
2021/09/05 01:58:32;;;;;;;2.38;1.85;;;22.00;52.90;;;25.98;35.60;102001.44;5084856;28;20048;-9
2021/09/05 02:01:17;;;;;;;2.15;1.92;;;22.00;52.90;;;25.99;35.62;102001.31;5091756;28;20060;-9
2021/09/05 02:04:05;;;;;;;2.20;2.00;;;22.00;52.90;;;25.96;35.55;101993.50;5092709;28;20158;-8
2021/09/05 02:07:06;;;;;;;2.13;1.93;;;22.00;52.90;;;26.00;35.59;102003.03;5075310;28;20127;-9
2021/09/05 02:09:55;;;;;;;2.13;1.92;;;22.10;53.00;;;25.99;35.53;102001.31;5064365;28;20044;-9
2021/09/05 02:12:39;;;;;;;2.30;1.83;;;22.00;52.90;;;25.95;35.60;102002.47;5093999;28;20054;-9
2021/09/05 02:15:24;;;;;;;2.10;1.90;;;22.00;52.90;;;25.94;35.54;101997.19;5093476;28;20101;-9
2021/09/05 02:18:18;;;;;;;2.42;1.80;;;22.00;52.90;;;25.93;35.62;102006.16;5090899;28;20102;-9
2021/09/05 02:20:57;;;;;;;1.95;1.77;;;22.00;52.90;;;25.94;35.75;102005.22;5092161;28;20132;-9
2021/09/05 02:23:40;;;;;;;1.70;1.60;;;22.00;53.00;;;25.95;35.65;102009.63;5075467;28;20040;-9
2021/09/05 02:26:19;;;;;;;3.03;2.10;;;22.00;53.00;;;25.94;35.61;102007.91;5092425;28;20474;-9
2021/09/05 02:29:04;;;;;;;2.33;1.83;;;22.00;53.00;;;25.92;35.76;102005.31;5093269;28;20055;-9
2021/09/05 02:31:51;;;;;;;2.17;1.92;;;22.00;53.00;;;25.92;35.72;102001.78;5077792;28;20050;-9
2021/09/05 02:34:36;;;;;;;2.03;1.85;;;22.00;53.00;;;25.92;35.75;102012.50;5093409;28;20501;-9
2021/09/05 02:37:23;;;;;;;2.30;2.05;;;22.00;53.00;;;25.92;35.67;102009.84;5074853;28;20055;-9
2021/09/05 02:40:04;;;;;;;1.75;1.65;;;22.00;53.00;;;25.91;35.96;102005.41;5072255;28;20489;-9
2021/09/05 02:42:59;;;;;;;2.22;1.95;;;22.00;53.00;;;25.94;35.61;102015.94;5091716;28;20032;-9
2021/09/05 02:45:59;;;;;;;2.08;1.88;;;22.00;53.00;;;25.95;35.57;102009.63;5075112;28;20493;-9
2021/09/05 02:48:44;;;;;;;1.95;1.85;;;22.00;53.00;;;25.89;35.68;102002.84;5091837;28;20059;-8
2021/09/05 02:51:29;;;;;;;2.40;2.00;;;22.00;53.00;;;25.92;35.66;102004.47;5091479;28;20101;-9
2021/09/05 02:54:23;;;;;;;2.03;1.80;;;22.00;53.10;;;25.90;35.65;102001.88;5074964;28;20039;-8
2021/09/05 02:57:16;;;;;;;2.25;1.83;;;22.00;53.10;;;25.92;35.86;102013.34;5091575;28;20509;-9
2021/09/05 03:00:03;;;;;;;2.35;2.03;;;22.00;53.00;;;25.89;35.71;102005.53;5092077;28;20073;-9
2021/09/05 03:02:51;;;;;;;2.17;1.83;;;22.00;53.10;;;25.92;35.74;102004.47;5091746;28;20085;-9
2021/09/05 03:05:48;;;;;;;2.30;2.10;;;22.00;53.10;;;25.91;35.72;102008.97;5074349;28;20032;-9
2021/09/05 03:08:37;;;;;;;2.22;1.70;;;22.00;53.10;;;25.89;35.59;102003.72;5072052;28;20495;-8
2021/09/05 03:11:24;;;;;;;1.65;1.55;;;22.00;53.00;;;25.91;35.76;102008.97;5075021;28;20093;-9
2021/09/05 03:14:16;;;;;;;3.15;2.15;;;22.00;53.10;;;25.91;35.75;102011.66;5074993;28;20147;-9
2021/09/05 03:16:58;;;;;;;2.25;2.05;;;22.00;53.10;;;25.90;35.66;102015.28;5074020;28;20477;-9
2021/09/05 03:19:44;;;;;;;2.45;2.13;;;21.90;53.10;;;25.88;35.78;102003.81;5074834;28;20124;-9
2021/09/05 03:22:28;;;;;;;2.10;1.90;;;22.00;53.10;;;25.89;35.95;102005.53;5092776;28;20089;-9
2021/09/05 03:25:17;;;;;;;2.47;1.73;;;22.00;53.10;;;25.86;35.68;102003.03;5074717;28;20044;-9
2021/09/05 03:28:15;;;;;;;1.90;1.63;;;22.00;53.10;;;25.88;35.76;102003.81;5053878;28;20136;-9
2021/09/05 03:31:00;;;;;;;2.17;1.90;;;21.90;53.00;;;25.89;35.70;102010.88;5092146;28;20052;-8
2021/09/05 03:34:02;;;;;;;2.08;1.83;;;21.90;53.00;;;25.87;35.71;101999.41;5074692;28;20040;-9
2021/09/05 03:36:47;;;;;;;1.92;1.73;;;21.90;53.00;;;25.87;35.66;102008.28;5092187;28;20056;-9
2021/09/05 03:39:39;;;;;;;1.95;1.75;;;21.90;53.10;;;25.85;35.65;101996.81;5074107;28;20485;-9
2021/09/05 03:42:31;;;;;;;1.80;1.70;;;21.90;53.10;;;25.86;35.73;101998.56;5077853;28;20048;-9
2021/09/05 03:45:30;;;;;;;2.10;1.90;;;21.90;53.10;;;25.87;35.78;102004.75;5057835;28;20134;-9
2021/09/05 03:48:16;;;;;;;2.08;1.88;;;21.90;53.10;;;25.87;35.74;102007.44;5091800;28;20060;-9
2021/09/05 03:51:00;;;;;;;2.10;1.90;;;21.90;53.10;;;25.86;35.76;102003.91;5074204;28;20051;-9
2021/09/05 03:53:28;;;;;;;2.17;1.92;;;21.90;53.10;;;25.83;35.78;102000.59;5073743;28;20375;-8
2021/09/05 03:55:55;;;;;;;3.25;2.15;;;21.90;53.10;;;25.84;35.71;102005.84;5073773;28;20059;-9
2021/09/05 03:58:24;;;;;;;2.58;1.98;;;21.90;53.10;;;25.86;35.73;102008.38;5074086;28;20044;-9
2021/09/05 04:00:50;;;;;;;2.20;2.00;;;21.90;53.10;;;25.83;35.78;102006.78;5075373;28;20538;-9
2021/09/05 04:03:16;;;;;;;2.25;1.73;;;21.90;53.10;;;25.82;35.75;101994.34;5095440;28;20087;-9
2021/09/05 04:05:42;;;;;;;2.17;1.98;;;21.90;53.10;;;25.86;35.78;102003.03;5075756;28;20114;-9
2021/09/05 04:10:35;;;;;;;1.92;1.73;;;21.90;53.10;;;25.82;35.78;102005.06;5095852;28;20079;-9
2021/09/05 04:13:03;;;;;;;1.98;1.77;;;21.90;53.10;;;25.84;35.70;102002.28;5095676;28;20143;-9
2021/09/05 04:15:30;;;;;;;2.25;2.05;;;21.90;53.10;;;25.81;35.64;102000.69;5095126;28;20370;-9
2021/09/05 04:17:57;;;;;;;2.33;2.03;;;21.90;53.10;;;25.83;35.75;102006.78;5095000;28;20486;-9
2021/09/05 04:20:23;;;;;;;2.13;1.92;;;21.90;53.10;;;25.83;35.69;101998.75;5076600;28;20451;-8
2021/09/05 04:22:49;;;;;;;2.20;1.70;;;21.90;53.10;;;25.84;35.75;102004.97;5094820;28;20047;-9
2021/09/05 04:25:17;;;;;;;2.00;1.80;;;21.90;53.10;;;25.82;35.81;102002.38;5094890;28;20097;-9
2021/09/05 04:27:43;;;;;;;2.10;1.90;;;21.90;53.10;;;25.82;35.81;102005.06;5095004;28;20048;-9
2021/09/05 04:30:11;;;;;;;2.20;1.88;;;21.90;53.10;;;25.83;35.84;102005.94;5094616;28;20044;-9
2021/09/05 04:32:39;;;;;;;2.00;1.70;;;21.90;53.10;;;25.82;35.75;102007.75;5094839;28;20497;-9
2021/09/05 04:35:05;;;;;;;2.03;1.83;;;21.90;53.20;;;25.81;35.81;102005.16;5094745;28;20458;-9
2021/09/05 04:37:31;;;;;;;2.05;1.85;;;21.90;53.10;;;25.82;35.64;102005.06;5094737;28;20101;-9
2021/09/05 04:39:57;;;;;;;1.38;1.27;;;21.90;53.10;;;25.83;35.82;102009.47;5094686;28;20090;-9
2021/09/05 04:42:23;;;;;;;1.90;1.70;;;21.90;53.10;;;25.80;35.75;102003.44;5094809;28;20127;-9
2021/09/05 04:44:52;;;;;;;2.10;1.90;;;21.90;53.00;;;25.82;35.74;102006.88;5094744;28;20108;-9
2021/09/05 04:47:18;;;;;;;2.20;2.00;;;21.90;53.00;;;25.81;35.81;102006.03;5094716;28;20044;-9
2021/09/05 04:49:44;;;;;;;1.80;1.70;;;21.90;53.00;;;25.82;35.86;102010.41;5094484;28;20094;-8
2021/09/05 04:52:10;;;;;;;2.33;1.95;;;21.90;53.00;;;25.81;35.76;102013.19;5094905;28;20052;-9
2021/09/05 04:54:36;;;;;;;2.20;1.98;;;21.90;53.00;;;25.84;35.78;102021.03;5094580;28;20516;-8
2021/09/05 04:57:03;;;;;;;2.55;1.90;;;21.90;53.00;;;25.82;35.71;102020.28;5094570;28;20522;-9
2021/09/05 04:59:28;;;;;;;2.00;1.75;;;21.90;52.90;;;25.86;35.62;102021.78;5094519;28;20067;-9
2021/09/05 05:01:54;;;;;;;2.10;1.90;;;21.90;52.90;;;25.85;35.67;102026.28;5094524;28;20486;-9
2021/09/05 05:04:20;;;;;;;1.85;1.70;;;21.90;52.90;;;25.87;35.74;102031.56;5094438;28;20430;-9
2021/09/05 05:06:46;;;;;;;1.70;1.60;;;22.00;52.80;;;25.91;35.73;102038.47;5094435;28;20051;-8
2021/09/05 05:09:14;;;;;;;2.70;2.00;;;22.10;52.70;;;25.93;35.62;102033.84;5076244;28;20040;-9
2021/09/05 05:11:40;;;;;;;2.38;2.08;;;22.10;52.50;;;25.96;35.59;102039.06;5093815;28;20048;-9
2021/09/05 05:14:06;;;;;;;1.98;1.75;;;22.20;52.30;;;26.03;35.53;102042.19;5094355;28;20052;-9
2021/09/05 05:16:32;;;;;;;2.22;1.88;;;22.30;52.20;;;26.09;35.50;102038.25;5094082;28;20546;-10
2021/09/05 05:18:59;;;;;;;2.15;1.95;;;22.30;52.00;;;26.10;35.49;102038.16;5093969;28;20059;-9
2021/09/05 05:21:27;;;;;;;2.15;1.63;;;22.40;51.90;;;26.15;35.22;102041.38;5094269;28;20052;-9
2021/09/05 05:23:54;;;;;;;1.70;1.60;;;22.50;51.70;;;26.20;35.43;102035.72;5094142;28;20076;-9
2021/09/05 05:26:19;;;;;;;2.13;1.88;;;22.60;51.50;;;26.26;35.19;102037.97;5094125;28;20067;-9
2021/09/05 05:28:45;;;;;;;1.70;1.60;;;22.60;51.30;;;26.31;35.12;102032.31;5093671;28;20048;-9
2021/09/05 05:31:11;;;;;;;2.20;1.90;;;22.70;51.60;;;26.40;34.91;102045.13;5094056;28;20055;-9
2021/09/05 05:33:37;;;;;;;2.15;1.98;;;22.80;50.90;;;26.44;35.07;102038.56;5093891;28;20143;-9
2021/09/05 05:36:03;;;;;;;2.00;1.73;;;22.90;50.70;;;26.49;34.90;102046.31;5094203;28;20120;-9
2021/09/05 05:38:28;;;;;;;1.60;1.50;;;23.00;50.60;;;26.52;34.87;102046.97;5093580;28;20041;-9
2021/09/05 05:40:54;;;;;;;1.70;1.50;;;23.00;50.40;;;26.58;34.96;102053.75;5094149;28;20078;-9
2021/09/05 05:43:20;;;;;;;1.85;1.58;;;23.10;50.30;;;26.64;34.88;102053.38;5094144;28;20493;-9
2021/09/05 05:45:46;;;;;;;1.75;1.65;;;23.10;50.10;;;26.68;34.66;102049.53;5094065;28;20048;-8
2021/09/05 05:48:13;;;;;;;2.08;1.88;;;23.20;50.00;;;26.73;34.67;102054.56;5093394;28;20406;-9
2021/09/05 05:50:39;;;;;;;2.00;1.80;;;23.30;49.90;;;26.79;34.54;102062.19;5075679;28;20078;-9
2021/09/05 05:53:05;;;;;;;2.00;1.80;;;23.40;49.80;;;26.84;34.50;102057.38;5093612;28;20097;-9
2021/09/05 05:55:31;;;;;;;1.70;1.50;;;23.40;49.60;;;26.89;34.41;102057.06;5093638;28;20048;-9
2021/09/05 05:57:58;;;;;;;1.77;1.50;;;23.40;49.50;;;26.92;34.34;102056.84;5092689;28;20058;-9
2021/09/05 06:00:30;;;;;;;1.90;1.70;;;23.50;49.50;;;26.98;34.23;102061.78;5075250;28;20052;-9
2021/09/05 06:02:57;;;;;;;1.50;1.40;;;23.50;49.40;;;27.03;34.17;102064.16;5094141;28;20058;-8
2021/09/05 06:05:23;;;;;;;1.92;1.52;;;23.60;49.30;;;27.09;34.24;102064.59;5093357;28;20517;-9
2021/09/05 06:07:49;;;;;;;1.48;1.38;;;23.70;49.10;;;27.12;34.10;102066.22;5093243;28;20052;-9
2021/09/05 06:10:15;;;;;;;1.80;1.67;;;23.70;49.00;;;27.17;33.95;102061.38;5093125;28;20056;-9
2021/09/05 06:12:41;;;;;;;2.00;1.80;;;23.80;49.00;;;27.22;33.86;102069.13;5093521;28;20048;-9
2021/09/05 06:15:08;;;;;;;2.08;1.55;;;23.80;49.30;;;27.26;33.98;102074.16;5073843;28;20143;-9
2021/09/05 06:17:34;;;;;;;1.98;1.77;;;23.90;48.70;;;27.27;33.96;102073.19;5093282;28;20124;-9
2021/09/05 06:20:00;;;;;;;1.63;1.33;;;23.90;48.60;;;27.32;33.96;102078.28;5093070;28;20063;-9
2021/09/05 06:22:25;;;;;;;1.75;1.63;;;24.00;48.60;;;27.40;33.97;102080.41;5093262;28;20043;-9
2021/09/05 06:24:51;;;;;;;2.03;1.70;;;24.00;48.50;;;27.42;33.95;102076.66;5093148;28;20059;-9
2021/09/05 06:27:17;;;;;;;2.20;2.00;;;24.10;48.40;;;27.45;33.76;102075.56;5093173;28;20044;-9
2021/09/05 06:29:42;;;;;;;2.15;1.83;;;24.10;48.30;;;27.52;33.71;102087.63;5093559;28;20079;-9
2021/09/05 06:32:09;;;;;;;1.90;1.70;;;24.20;48.30;;;27.55;33.42;102084.72;5093581;28;20059;-9
2021/09/05 06:34:34;;;;;;;1.85;1.70;;;24.20;48.70;;;27.57;33.48;102085.47;5092986;28;20055;-9
2021/09/05 06:37:00;;;;;;;1.30;1.20;;;24.20;48.00;;;27.60;33.56;102079.88;5093359;28;20430;-9
2021/09/05 06:39:26;;;;;;;2.10;1.75;;;24.30;48.00;;;27.65;33.57;102079.53;5093017;28;20060;-9
2021/09/05 06:41:52;;;;;;;2.22;2.00;;;24.30;47.90;;;27.67;33.56;102078.47;5092899;28;20090;-9
2021/09/05 06:44:18;;;;;;;1.70;1.60;;;24.30;47.80;;;27.73;33.45;102082.53;5092858;28;20075;-9
2021/09/05 06:46:43;;;;;;;1.70;1.60;;;24.40;47.80;;;27.75;33.45;102082.41;5092836;28;20083;-9
2021/09/05 06:49:09;;;;;;;1.55;1.45;;;24.40;47.70;;;27.76;33.31;102079.63;5093260;28;20052;-9
2021/09/05 06:51:35;;;;;;;1.80;1.70;;;24.40;47.60;;;27.81;33.28;102081.97;5092825;28;20044;-9
2021/09/05 06:54:00;;;;;;;2.25;1.67;;;24.50;47.60;;;27.85;33.12;102072.72;5092737;28;20048;-9
2021/09/05 06:56:26;;;;;;;1.60;1.50;;;24.50;47.60;;;27.87;33.24;102068.97;5092804;28;20051;-8
2021/09/05 06:58:52;;;;;;;1.35;1.25;;;24.50;47.50;;;27.89;33.15;102085.81;5092610;28;20051;-9
2021/09/05 07:01:18;;;;;;;1.88;1.70;;;24.50;47.50;;;27.93;33.20;102082.94;5093025;28;20070;-9
2021/09/05 07:03:43;;;;;;;1.88;1.65;;;24.60;47.40;;;27.97;32.84;102089.84;5074692;28;20135;-9
2021/09/05 07:06:09;;;;;;;1.65;1.55;;;24.60;47.30;;;28.01;32.91;102091.31;5092707;28;20052;-9
2021/09/05 07:08:36;;;;;;;1.90;1.80;;;24.70;47.30;;;28.00;33.00;102085.09;5092905;28;20406;-9
2021/09/05 07:11:02;;;;;;;1.50;1.40;;;24.70;47.20;;;28.05;32.92;102087.41;5092860;28;20075;-9
2021/09/05 07:13:28;;;;;;;1.73;1.40;;;24.70;47.10;;;28.08;32.61;102081.81;5092548;28;20044;-9
2021/09/05 07:15:53;;;;;;;1.50;1.40;;;24.70;47.10;;;28.08;32.51;102073.75;5092303;28;20366;-9
2021/09/05 07:18:23;;;;;;;1.73;1.60;;;24.70;47.00;;;28.10;32.94;102082.59;5092496;28;20421;-9
2021/09/05 07:20:49;;;;;;;1.65;1.55;;;24.70;47.00;;;28.15;32.88;102079.53;5092457;28;20481;-9
2021/09/05 07:23:15;;;;;;;1.40;1.30;;;24.70;47.00;;;28.17;32.51;102080.31;5092460;28;20485;-9
2021/09/05 07:25:41;;;;;;;1.90;1.52;;;24.80;47.00;;;28.16;32.58;102079.44;5074152;28;20072;-9
2021/09/05 07:28:06;;;;;;;1.75;1.65;;;24.80;47.00;;;28.19;32.60;102084.59;5092069;28;20401;-9
2021/09/05 07:30:33;;;;;;;1.98;1.77;;;24.80;47.00;;;28.19;32.59;102089.97;5092657;28;20055;-9
2021/09/05 07:33:00;;;;;;;1.92;1.55;;;24.80;47.00;;;28.22;32.32;102089.75;5092438;28;20048;-9
2021/09/05 07:35:26;;;;;;;1.33;1.23;;;24.80;47.00;;;28.23;32.28;102091.47;5093418;28;20428;-9
2021/09/05 07:37:52;;;;;;;1.60;1.50;;;24.80;47.00;;;28.21;32.28;102092.53;5096244;28;20050;-9
2021/09/05 07:40:21;;;;;;;2.00;1.80;;;24.80;47.00;;;28.25;32.33;102088.66;5095540;28;20052;-9
2021/09/05 07:42:47;;;;;;;1.80;1.70;;;24.80;47.00;;;28.24;32.42;102084.25;5077899;28;20048;-9
2021/09/05 07:45:13;;;;;;;1.85;1.75;;;24.80;46.90;;;28.27;32.36;102095.63;5095473;28;20493;-9
2021/09/05 07:47:39;;;;;;;1.98;1.70;;;24.80;46.90;;;28.26;32.40;102087.69;5095476;28;20055;-9
2021/09/05 07:50:08;;;;;;;1.40;1.30;;;24.80;46.90;;;28.28;32.33;102091.13;5095473;28;20056;-9
2021/09/05 07:52:33;;;;;;;1.85;1.48;;;24.80;46.80;;;28.31;32.26;102088.19;5095780;28;20055;-9
2021/09/05 07:54:59;;;;;;;1.38;1.27;;;24.80;46.80;;;28.31;32.09;102088.19;5095480;28;20142;-9
2021/09/05 07:57:25;;;;;;;1.35;1.25;;;24.80;46.80;;;28.33;32.36;102093.47;5095469;28;20062;-8
2021/09/05 07:59:51;;;;;;;1.50;1.40;;;24.80;47.40;;;28.32;32.33;102092.63;5095532;28;20503;-9
2021/09/05 08:02:17;;;;;;;1.83;1.60;;;24.80;46.90;;;28.32;32.19;102091.75;5095438;28;20059;-9
2021/09/05 08:04:42;;;;;;;1.40;1.30;;;24.80;46.90;;;28.31;32.43;102095.41;5095358;28;20093;-9
2021/09/05 08:07:09;;;;;;;1.60;1.45;;;24.80;47.00;;;28.32;32.21;102095.31;5095616;28;20048;-9
2021/09/05 08:09:34;;;;;;;1.77;1.52;;;24.70;46.90;;;28.32;32.35;102099.81;5095298;28;20451;-9
2021/09/05 08:12:00;;;;;;;2.10;1.77;;;24.70;47.10;;;28.28;32.36;102101.88;5095164;28;20039;-9
2021/09/05 08:14:26;;;;;;;1.88;1.52;;;24.70;47.20;;;28.28;32.07;102100.06;5095327;28;20413;-9
2021/09/05 08:16:52;;;;;;;2.03;1.83;;;24.70;47.50;;;28.25;32.28;102099.41;5095555;28;20541;-9
2021/09/05 08:19:17;;;;;;;1.55;1.40;;;24.60;47.40;;;28.21;32.44;102096.09;5095193;28;20105;-9
2021/09/05 08:21:44;;;;;;;2.03;1.83;;;24.50;48.10;;;28.18;32.39;102101.69;5094978;28;20048;-9
2021/09/05 08:24:10;;;;;;;1.70;1.60;;;24.40;47.70;;;28.18;32.33;102103.53;5095038;28;20121;-9
2021/09/05 08:26:36;;;;;;;1.55;1.45;;;24.40;47.80;;;28.15;32.52;102110.00;5095019;28;20043;-9
2021/09/05 08:29:01;;;;;;;2.22;2.00;;;24.30;47.90;;;28.09;32.23;102113.13;5077043;28;20043;-9
2021/09/05 08:31:27;;;;;;;1.50;1.40;;;24.30;47.90;;;28.08;32.41;102109.59;5077187;28;20059;-8
2021/09/05 08:33:53;;;;;;;1.52;1.40;;;24.20;48.00;;;28.03;32.39;102113.56;5095049;28;20074;-9
2021/09/05 08:36:19;;;;;;;2.13;1.85;;;24.20;48.10;;;28.03;32.62;102110.88;5095237;28;20063;-9
2021/09/05 08:38:45;;;;;;;2.33;1.50;;;24.20;48.10;;;27.98;32.57;102111.22;5094703;28;20097;-9
2021/09/05 08:41:10;;;;;;;1.85;1.50;;;24.20;48.20;;;27.95;32.50;102114.16;5094881;28;20044;-9
2021/09/05 08:43:37;;;;;;;1.73;1.40;;;24.10;48.30;;;27.94;32.74;102116.94;5094766;28;20063;-9
2021/09/05 08:46:06;;;;;;;1.63;1.52;;;24.10;48.40;;;27.90;32.58;102122.50;5092447;28;20059;-9
2021/09/05 08:48:32;;;;;;;1.50;1.40;;;24.00;48.40;;;27.87;32.64;102114.66;5093881;28;20443;-9
2021/09/05 08:50:57;;;;;;;1.75;1.60;;;24.00;48.50;;;27.84;32.57;102112.19;5076635;28;20052;-9
2021/09/05 08:53:23;;;;;;;2.20;1.80;;;23.90;48.60;;;27.82;32.74;102122.19;5093228;28;20059;-9
2021/09/05 08:55:49;;;;;;;1.73;1.58;;;23.90;48.60;;;27.79;32.73;102127.78;5095090;28;20052;-9
2021/09/05 08:58:16;;;;;;;1.65;1.55;;;23.90;48.60;;;27.76;32.91;102138.75;5094505;28;20165;-9
2021/09/05 09:00:42;;;;;;;1.90;1.50;;;23.90;48.60;;;27.73;32.78;102137.16;5094575;28;20047;-8
2021/09/05 09:03:08;;;;;;;1.60;1.50;;;23.90;48.60;;;27.73;32.89;102138.97;5094456;28;20043;-9
2021/09/05 09:05:40;;;;;;;2.50;1.80;;;23.90;48.70;;;27.67;33.01;102140.25;5094629;28;20044;-9
2021/09/05 09:08:10;;;;;;;1.60;1.50;;;23.80;49.10;;;27.68;32.72;102146.50;5094443;28;20063;-9
2021/09/05 09:10:48;;;;;;;1.40;1.30;;;23.80;48.80;;;27.62;32.95;102138.88;5094482;28;20252;-9
2021/09/05 09:13:40;;;;;;;1.75;1.65;;;23.80;48.90;;;27.59;32.91;102133.72;5094360;28;20048;-9
2021/09/05 09:16:11;;;;;;;1.85;1.60;;;23.70;48.90;;;27.58;32.70;102140.91;5094155;28;20055;-9
2021/09/05 09:18:41;;;;;;;;;;;23.70;49.00;;;27.66;32.83;102133.16;5094522;28;20397;-9
2021/09/05 09:21:10;;;;;;;1.77;1.58;;;23.70;49.10;;;27.57;33.05;102132.97;5094131;28;19974;-8
2021/09/05 09:23:38;;;;;;;1.55;1.42;;;23.70;49.10;;;27.53;32.90;102133.19;5094537;28;20393;-9
2021/09/05 09:26:12;;;;;;;1.50;1.40;;;23.70;49.10;;;27.49;33.13;102125.44;5094262;28;20067;-9
2021/09/05 09:28:49;;;;;;;1.55;1.45;;;23.60;49.20;;;27.48;33.05;102143.41;5093797;28;20052;-8
2021/09/05 09:31:16;;;;;;;1.98;1.67;;;23.60;49.30;;;27.45;33.21;102129.28;5094412;28;20100;-8
2021/09/05 09:33:45;;;;;;;1.80;1.50;;;23.50;49.40;;;27.42;33.17;102135.75;5094014;28;20099;-9
2021/09/05 09:36:15;;;;;;;1.65;1.55;;;23.50;49.50;;;27.42;33.31;102142.97;5094126;28;20051;-9
2021/09/05 09:38:53;;;;;;;2.35;1.65;;;23.50;49.50;;;27.35;33.24;102129.94;5073643;28;20049;-9
2021/09/05 09:41:18;;;;;;;1.50;1.17;;;23.50;49.50;;;27.35;33.22;102126.41;5094220;28;20044;-8
2021/09/05 09:44:00;;;;;;;1.70;1.60;;;23.40;49.50;;;27.34;33.17;102130.91;5094290;28;20056;-8
2021/09/05 09:46:30;;;;;;;1.70;1.55;;;23.40;49.60;;;27.32;33.42;102126.63;5094075;28;20044;-8
2021/09/05 09:49:02;;;;;;;1.55;1.45;;;23.40;49.70;;;27.34;33.22;102130.91;5075686;28;20043;-8
2021/09/05 09:51:28;;;;;;;2.45;1.80;;;23.40;49.70;;;27.31;33.21;102124.91;5093769;28;20066;-8
2021/09/05 09:53:55;;;;;;;2.08;1.88;;;23.40;49.80;;;27.28;33.29;102125.06;5093780;28;20139;-8
2021/09/05 09:56:21;;;;;;;1.80;1.50;;;23.40;49.80;;;27.28;33.17;102125.06;5093693;28;20044;-8
2021/09/05 09:58:50;;;;;;;1.98;1.80;;;23.40;49.80;;;27.29;33.21;102124.16;5093422;28;20389;-8
2021/09/05 10:01:19;;;;;;;1.70;1.60;;;23.40;49.80;;;27.26;33.39;102125.19;5075463;28;20063;-8
2021/09/05 10:03:48;;;;;;;1.73;1.63;;;23.40;49.80;;;27.27;33.40;102123.38;5075448;28;20036;-8
2021/09/05 10:06:15;;;;;;;1.42;1.33;;;23.40;49.70;;;27.26;33.22;102119.81;5093616;28;20382;-9
2021/09/05 10:08:43;;;;;;;2.00;1.80;;;23.40;49.80;;;27.27;33.32;102120.69;5093450;28;20043;-9
2021/09/05 10:11:11;;;;;;;2.00;1.40;;;23.40;49.80;;;27.27;33.30;102128.75;5093338;28;20044;-9
2021/09/05 10:13:42;;;;;;;1.77;1.55;;;23.30;49.80;;;27.22;33.30;102126.38;5093753;28;20052;-9
2021/09/05 10:16:09;;;;;;;;;;;23.30;49.90;;;27.35;33.12;102126.41;5090297;28;20128;-9
2021/09/05 10:18:40;;;;;;;1.80;1.58;;;23.30;49.90;;;27.27;33.49;102123.38;5093256;28;20335;-9
2021/09/05 10:21:07;;;;;;;2.28;1.80;;;23.30;49.80;;;27.23;33.43;102121.84;5093378;28;20402;-9
2021/09/05 10:23:35;;;;;;;1.52;1.42;;;23.40;49.80;;;27.24;33.65;102120.91;5091898;28;20047;-9
2021/09/05 10:26:11;;;;;;;1.88;1.52;;;23.40;49.80;;;27.21;33.68;102131.84;5093340;28;20104;-9
2021/09/05 10:28:40;;;;;;;1.90;1.65;;;23.30;49.80;;;27.25;33.41;102125.28;5093227;28;20048;-9
2021/09/05 10:31:07;;;;;;;1.75;1.55;;;23.40;49.70;;;27.23;33.34;102125.41;5093389;28;20039;-9
2021/09/05 10:33:37;;;;;;;2.22;1.90;;;23.40;49.70;;;27.19;33.61;102107.78;5092875;28;20048;-9
2021/09/05 10:36:09;;;;;;;1.48;1.38;;;23.40;49.80;;;27.22;33.45;102114.78;5092966;28;20135;-9
2021/09/05 10:38:41;;;;;;;1.70;1.60;;;23.40;49.80;;;27.23;33.66;102113.78;5092985;28;20063;-9
2021/09/05 10:41:19;;;;;;;1.48;1.38;;;23.40;49.80;;;27.22;33.64;102112.09;5093010;28;20044;-9